AYNZ/LAE METAR and TAF weather

Enter ICAO airport designator
Station Type Date Time Source
AYNZ METAR 2021/09/23 08:00 UTC NOAA

AYNZ 230800Z 09010KT 9999 SCT020 SCT040 25/22 Q1011=


Station Type Date Time Source
AYNZ Decoded METAR 2021/09/23 08:00 UTC NOAA

Station name not available
Sep 23, 2021 - 04:00 AM EDT / 2021.09.23 0800 UTC
Wind: from the E (090 degrees) at 12 MPH (10 KT):0
Visibility: greater than 7 mile(s):0
Sky conditions: partly cloudy
Temperature: 77 F (25 C)
Dew Point: 71 F (22 C)
Relative Humidity: 83%
Pressure (altimeter): 29.85 in. Hg (1011 hPa)
ob: AYNZ 230800Z 09010KT 9999 SCT020 SCT040 25/22 Q1011=
cycle: 8

Station Type Date Time Source
AYNZ TAF 2015/08/19 08:15 UTC NOAA

TAF AYNZ 190550Z 1908/1920 09015KT 9999 SCT020 SCT120
FM191400 VRB03KT 9999 BKN040 Q 1011 1014 1013 1010

Example: see airport list